Time;durP1;ratioP1;P1;durP2;ratioP2;P2;SDS_P1;SDS_P2;PMS_P1;PMS_P2;Temp;Humidity;BMP_temperature;BMP_pressure;BME280_temperature;BME280_humidity;BME280_pressure;Samples;Min_cycle;Max_cycle;Signal;HPM_P1;HPM_P2
2022/03/17 00:00:35;;;;;;;21.57;17.57;;;10.60;43.30;;;;;;4997066;28;20201;-63
2022/03/17 00:03:03;;;;;;;23.63;16.93;;;10.60;20.20;;;;;;4988600;28;20256;-63
2022/03/17 00:05:30;;;;;;;21.30;16.67;;;10.60;5.80;;;;;;4999477;28;20601;-63
2022/03/17 00:07:58;;;;;;;21.30;16.97;;;10.70;1.00;;;;;;4983347;28;20672;-64
2022/03/17 00:10:25;;;;;;;22.83;16.83;;;10.70;1.00;;;;;;4988641;28;20234;-63
2022/03/17 00:12:52;;;;;;;21.03;16.47;;;10.70;1.00;;;;;;4988792;28;20205;-63
2022/03/17 00:15:19;;;;;;;22.77;16.93;;;10.70;1.00;;;;;;4990041;28;20278;-63
2022/03/17 00:17:46;;;;;;;17.83;15.13;;;10.70;1.00;;;;;;4988846;28;20198;-63
2022/03/17 00:20:16;;;;;;;18.80;15.33;;;10.80;1.00;;;;;;4998413;28;20217;-63
2022/03/17 00:22:43;;;;;;;20.33;16.43;;;10.80;1.00;;;;;;4984981;28;20313;-63
2022/03/17 00:25:11;;;;;;;20.30;16.70;;;10.80;1.00;;;;;;4982748;28;20356;-63
2022/03/17 00:27:38;;;;;;;20.57;16.90;;;10.70;1.00;;;;;;4990123;28;20312;-64
2022/03/17 00:30:06;;;;;;;19.60;16.47;;;10.70;1.00;;;;;;4998738;28;20568;-64
2022/03/17 00:32:39;;;;;;;20.80;16.50;;;10.70;1.00;;;;;;4982806;28;20201;-64
2022/03/17 00:37:53;;;;;;;21.67;16.40;;;10.80;1.00;;;;;;4998961;28;20233;-64
2022/03/17 00:40:20;;;;;;;20.27;16.13;;;10.80;1.00;;;;;;4998307;28;20213;-63
2022/03/17 00:42:51;;;;;;;18.53;16.30;;;10.80;1.00;;;;;;4990276;28;20261;-63
2022/03/17 00:45:22;;;;;;;18.70;16.00;;;10.80;1.00;;;;;;4997779;28;20638;-64
2022/03/17 00:47:49;;;;;;;22.57;17.30;;;10.80;1.00;;;;;;4988240;28;20224;-63
2022/03/17 00:50:16;;;;;;;21.23;16.43;;;10.80;1.00;;;;;;4990446;28;20209;-64
2022/03/17 00:52:45;;;;;;;22.17;17.10;;;10.80;1.00;;;;;;4989522;28;20197;-64
2022/03/17 00:55:13;;;;;;;27.27;18.10;;;10.80;1.00;;;;;;4988866;28;20212;-63
2022/03/17 00:57:43;;;;;;;22.47;16.97;;;10.80;1.00;;;;;;4984057;28;20325;-64
2022/03/17 01:00:18;;;;;;;22.70;16.73;;;10.80;1.00;;;;;;4998082;28;20217;-63
2022/03/17 01:02:51;;;;;;;21.53;16.90;;;10.80;1.00;;;;;;4988159;28;20206;-63
2022/03/17 01:05:19;;;;;;;21.30;17.03;;;10.80;1.00;;;;;;4984561;28;20194;-63
2022/03/17 01:07:46;;;;;;;20.40;16.97;;;10.90;1.00;;;;;;4998676;28;20255;-63
2022/03/17 01:10:16;;;;;;;22.93;17.23;;;10.90;1.00;;;;;;4986094;28;20201;-64
2022/03/17 01:12:52;;;;;;;21.57;16.83;;;10.90;1.00;;;;;;5005300;28;20206;-64
2022/03/17 01:15:20;;;;;;;21.80;18.13;;;10.90;1.00;;;;;;4990636;28;20212;-63
2022/03/17 01:17:48;;;;;;;25.13;17.97;;;10.90;1.00;;;;;;4998654;28;20256;-64
2022/03/17 01:20:18;;;;;;;20.90;17.30;;;10.90;1.00;;;;;;4985203;28;20210;-63
2022/03/17 01:22:45;;;;;;;21.17;17.77;;;10.90;1.00;;;;;;4998483;28;20293;-63
2022/03/17 01:25:12;;;;;;;23.43;17.90;;;11.00;1.00;;;;;;4997504;28;20198;-63
2022/03/17 01:27:39;;;;;;;23.83;18.07;;;10.90;1.00;;;;;;4989120;28;20216;-64
2022/03/17 01:30:10;;;;;;;21.13;18.33;;;10.90;1.00;;;;;;4981358;28;20210;-64
2022/03/17 01:32:40;;;;;;;24.00;18.60;;;10.90;1.00;;;;;;4982633;28;20202;-64
2022/03/17 01:35:09;;;;;;;20.87;18.30;;;10.80;1.00;;;;;;4990023;28;20214;-63
2022/03/17 01:37:36;;;;;;;21.70;18.63;;;10.90;1.00;;;;;;4983496;28;20201;-64
2022/03/17 01:40:04;;;;;;;24.43;19.20;;;10.90;1.00;;;;;;4989199;28;20477;-64
2022/03/17 01:42:33;;;;;;;24.97;19.03;;;10.90;1.00;;;;;;4982647;28;20598;-63
2022/03/17 01:45:00;;;;;;;27.13;20.07;;;10.90;1.00;;;;;;4982871;28;20199;-64
2022/03/17 01:47:28;;;;;;;23.80;19.10;;;10.90;1.00;;;;;;4994716;28;20225;-64
2022/03/17 01:50:02;;;;;;;23.87;19.57;;;11.00;1.00;;;;;;4997075;28;20272;-64
2022/03/17 01:52:30;;;;;;;25.33;19.83;;;11.00;1.00;;;;;;4998083;28;20213;-64
2022/03/17 01:54:57;;;;;;;22.90;19.50;;;11.10;1.00;;;;;;4972756;28;20214;-63
2022/03/17 01:57:24;;;;;;;23.50;18.27;;;11.20;1.00;;;;;;4983760;28;20514;-64
2022/03/17 01:59:52;;;;;;;23.13;19.80;;;11.20;1.00;;;;;;4985186;28;20201;-65
2022/03/17 02:02:20;;;;;;;22.90;19.00;;;11.30;1.00;;;;;;5000153;28;20214;-64
2022/03/17 02:04:48;;;;;;;25.50;20.10;;;11.20;1.00;;;;;;5000739;28;20205;-63
2022/03/17 02:07:15;;;;;;;24.80;19.63;;;11.20;1.00;;;;;;4988734;28;20218;-64
2022/03/17 02:09:45;;;;;;;21.07;18.50;;;11.20;1.00;;;;;;4981911;28;20198;-63
2022/03/17 02:15:01;;;;;;;23.43;19.07;;;11.20;1.00;;;;;;4998101;28;20370;-63
2022/03/17 02:17:32;;;;;;;22.97;19.37;;;11.20;1.00;;;;;;4981675;28;20666;-63
2022/03/17 02:20:02;;;;;;;22.53;20.07;;;11.20;1.00;;;;;;4986157;28;20224;-63
2022/03/17 02:22:29;;;;;;;21.73;18.60;;;11.20;1.00;;;;;;4980452;28;20287;-64
2022/03/17 02:27:45;;;;;;;26.13;20.57;;;11.20;1.00;;;;;;4993896;28;20198;-63
2022/03/17 02:30:17;;;;;;;25.13;20.10;;;11.30;1.00;;;;;;4996511;28;20198;-63
2022/03/17 02:32:46;;;;;;;25.70;19.67;;;11.20;1.00;;;;;;4996533;28;20217;-63
2022/03/17 02:35:20;;;;;;;21.43;18.33;;;11.10;1.00;;;;;;4984464;28;20202;-64
2022/03/17 02:37:47;;;;;;;23.00;20.03;;;11.10;1.00;;;;;;4999656;28;20293;-63
2022/03/17 02:40:17;;;;;;;25.13;19.13;;;11.00;1.00;;;;;;4984704;28;20404;-63
2022/03/17 02:42:45;;;;;;;23.13;19.13;;;11.00;1.00;;;;;;4984560;28;20299;-63
2022/03/17 02:45:14;;;;;;;26.40;19.53;;;10.90;1.00;;;;;;4988805;28;20225;-62
2022/03/17 02:47:42;;;;;;;22.53;18.60;;;10.90;1.00;;;;;;4973610;28;20222;-63
2022/03/17 02:50:10;;;;;;;26.73;19.03;;;10.90;1.00;;;;;;4990879;28;20215;-63
2022/03/17 02:52:43;;;;;;;23.30;19.07;;;10.90;1.00;;;;;;4985573;28;20217;-63
2022/03/17 02:55:14;;;;;;;23.67;19.73;;;10.90;1.00;;;;;;5000839;28;20218;-62
2022/03/17 02:57:44;;;;;;;22.50;19.43;;;10.90;1.00;;;;;;5000857;28;20682;-63
2022/03/17 03:00:15;;;;;;;22.20;19.63;;;10.90;1.00;;;;;;4985439;28;20204;-62
2022/03/17 03:02:43;;;;;;;26.23;20.27;;;10.90;1.00;;;;;;4990843;28;20238;-64
2022/03/17 03:05:16;;;;;;;23.80;19.50;;;10.90;1.00;;;;;;4986313;28;20202;-63
2022/03/17 03:07:45;;;;;;;25.00;20.00;;;10.90;1.00;;;;;;4985671;28;20193;-63
2022/03/17 03:10:12;;;;;;;23.13;19.30;;;10.90;1.00;;;;;;4999339;28;20241;-63
2022/03/17 03:12:40;;;;;;;23.63;19.33;;;10.90;1.00;;;;;;5000816;28;20306;-63
2022/03/17 03:15:09;;;;;;;25.30;20.47;;;10.90;1.00;;;;;;4998884;28;20235;-63
2022/03/17 03:17:36;;;;;;;27.77;21.23;;;10.90;1.00;;;;;;4982465;28;20642;-64
2022/03/17 03:20:05;;;;;;;24.17;20.33;;;10.90;1.00;;;;;;4983756;28;20280;-63
2022/03/17 03:22:40;;;;;;;25.37;20.43;;;10.80;1.00;;;;;;4990327;28;20505;-63
2022/03/17 03:25:12;;;;;;;26.70;21.23;;;10.80;1.00;;;;;;4991134;28;20217;-64
2022/03/17 03:27:43;;;;;;;23.90;20.23;;;10.80;1.00;;;;;;4985051;28;20247;-64
2022/03/17 03:30:14;;;;;;;27.57;20.33;;;10.70;1.00;;;;;;4981508;28;20197;-64
2022/03/17 03:32:44;;;;;;;24.33;20.63;;;10.70;1.00;;;;;;4991172;28;20748;-65
2022/03/17 03:38:03;;;;;;;25.67;20.03;;;10.70;1.00;;;;;;4984110;28;20194;-63
2022/03/17 03:40:30;;;;;;;26.07;20.50;;;10.70;1.00;;;;;;4985875;28;20240;-63
2022/03/17 03:42:57;;;;;;;25.90;21.30;;;10.90;1.00;;;;;;5000136;28;20779;-64
2022/03/17 03:45:23;;;;;;;25.67;21.50;;;10.80;1.00;;;;;;5000394;28;20205;-64
2022/03/17 03:47:50;;;;;;;24.57;20.17;;;10.80;1.00;;;;;;4983143;28;20733;-64
2022/03/17 03:50:17;;;;;;;25.83;20.13;;;10.90;1.00;;;;;;4999952;28;20256;-64
2022/03/17 03:52:44;;;;;;;24.73;20.73;;;11.00;1.00;;;;;;4986040;28;20264;-64
2022/03/17 03:55:14;;;;;;;25.23;20.70;;;11.00;1.00;;;;;;4985463;28;20193;-64
2022/03/17 03:57:48;;;;;;;25.83;20.20;;;11.00;1.00;;;;;;4985934;28;20247;-64
2022/03/17 04:00:25;;;;;;;30.80;21.43;;;11.00;1.00;;;;;;4992939;28;20197;-63
2022/03/17 04:02:52;;;;;;;25.70;20.40;;;11.00;1.00;;;;;;4983126;28;20209;-63
2022/03/17 04:05:27;;;;;;;29.20;21.00;;;11.00;1.00;;;;;;4982854;28;20225;-65
2022/03/17 04:07:56;;;;;;;26.67;20.43;;;11.10;1.00;;;;;;4983159;28;20645;-63
2022/03/17 04:10:25;;;;;;;25.63;21.67;;;11.00;1.00;;;;;;4973204;28;20229;-63
2022/03/17 04:12:52;;;;;;;23.63;20.57;;;11.10;1.00;;;;;;5000631;28;20202;-63
2022/03/17 04:15:20;;;;;;;28.83;21.73;;;11.10;1.00;;;;;;4984377;28;20712;-63
2022/03/17 04:17:49;;;;;;;24.57;21.70;;;11.00;1.00;;;;;;4997042;28;20217;-62
2022/03/17 04:20:16;;;;;;;28.50;22.73;;;11.10;1.00;;;;;;4982989;28;20202;-62
2022/03/17 04:22:43;;;;;;;26.17;21.67;;;11.10;1.00;;;;;;4989734;28;20218;-63
2022/03/17 04:25:10;;;;;;;28.93;22.07;;;11.10;1.00;;;;;;4987909;28;20707;-62
2022/03/17 04:27:37;;;;;;;28.67;22.80;;;11.10;1.00;;;;;;4984424;28;20609;-64
2022/03/17 04:30:05;;;;;;;25.97;19.97;;;11.10;1.00;;;;;;4981487;28;20240;-64
2022/03/17 04:32:32;;;;;;;27.17;21.50;;;11.10;1.00;;;;;;4997111;28;20202;-63
2022/03/17 04:34:59;;;;;;;28.23;22.90;;;11.10;1.00;;;;;;4983587;28;20629;-63
2022/03/17 04:37:26;;;;;;;28.63;21.20;;;11.10;1.00;;;;;;4999181;28;20261;-63
2022/03/17 04:39:53;;;;;;;26.37;21.30;;;11.10;1.00;;;;;;4971909;28;20567;-63
2022/03/17 04:42:22;;;;;;;36.03;22.57;;;11.10;1.00;;;;;;4987662;28;20261;-63
2022/03/17 04:44:49;;;;;;;30.67;22.33;;;11.10;1.00;;;;;;4998151;28;20661;-63
2022/03/17 04:47:16;;;;;;;25.67;20.50;;;11.10;1.00;;;;;;4987624;28;20198;-63
2022/03/17 04:49:43;;;;;;;27.20;21.83;;;11.10;1.00;;;;;;4972559;28;20251;-63
2022/03/17 04:54:58;;;;;;;26.53;22.37;;;11.00;1.00;;;;;;4981041;28;20608;-63
2022/03/17 04:57:27;;;;;;;28.30;21.17;;;11.00;1.00;;;;;;4980737;28;20632;-63
2022/03/17 04:59:56;;;;;;;26.93;22.13;;;11.00;1.00;;;;;;4973632;28;20198;-63
2022/03/17 05:02:23;;;;;;;37.43;24.37;;;11.10;1.00;;;;;;4997684;28;20217;-63
2022/03/17 05:04:51;;;;;;;27.07;22.60;;;11.10;1.00;;;;;;4997830;28;20209;-63
2022/03/17 05:07:18;;;;;;;27.07;22.57;;;11.10;1.00;;;;;;4999471;28;20273;-63
2022/03/17 05:09:45;;;;;;;29.57;22.07;;;11.10;1.00;;;;;;4989942;28;20241;-63
2022/03/17 05:12:15;;;;;;;30.30;23.60;;;11.10;1.00;;;;;;4984824;28;20264;-63
2022/03/17 05:14:42;;;;;;;26.73;22.27;;;11.10;1.00;;;;;;4988049;28;20198;-63
2022/03/17 05:17:12;;;;;;;28.37;21.60;;;11.20;1.00;;;;;;4998363;28;20205;-63
2022/03/17 05:19:39;;;;;;;27.23;22.40;;;11.10;1.00;;;;;;4982540;28;20229;-63
2022/03/17 05:22:06;;;;;;;31.20;22.87;;;11.20;1.00;;;;;;4997910;28;20300;-63
2022/03/17 05:24:33;;;;;;;33.27;23.10;;;11.20;1.00;;;;;;4983272;28;20720;-63
2022/03/17 05:27:00;;;;;;;27.27;21.77;;;11.20;1.00;;;;;;4998620;28;20202;-63
2022/03/17 05:29:29;;;;;;;25.63;22.00;;;11.20;1.00;;;;;;4982626;28;20197;-63
2022/03/17 05:32:02;;;;;;;28.03;23.03;;;11.30;1.00;;;;;;4980457;28;20182;-63
2022/03/17 05:34:32;;;;;;;30.20;23.17;;;11.30;1.00;;;;;;4981497;28;20206;-64
2022/03/17 05:36:59;;;;;;;29.43;22.60;;;11.30;1.00;;;;;;4982767;28;20201;-64
2022/03/17 05:39:28;;;;;;;27.37;22.37;;;11.40;1.00;;;;;;4980156;28;20201;-63
2022/03/17 05:41:55;;;;;;;27.17;21.97;;;11.40;1.00;;;;;;4996499;28;21042;-63
2022/03/17 05:44:22;;;;;;;26.83;22.83;;;11.30;1.00;;;;;;4984577;28;20256;-63
2022/03/17 05:46:49;;;;;;;32.13;22.67;;;11.40;1.00;;;;;;4980337;28;20190;-63
2022/03/17 05:49:16;;;;;;;31.00;22.47;;;11.40;1.00;;;;;;4987621;28;20186;-63
2022/03/17 05:51:43;;;;;;;28.37;22.77;;;11.30;1.00;;;;;;4996744;28;20202;-63
2022/03/17 05:54:10;;;;;;;27.73;23.23;;;11.40;1.00;;;;;;4984540;28;20292;-64
2022/03/17 05:56:37;;;;;;;29.23;23.10;;;11.40;1.00;;;;;;4999186;28;20216;-62
2022/03/17 05:59:06;;;;;;;27.63;22.80;;;11.40;1.00;;;;;;4997600;28;20198;-62
2022/03/17 06:01:35;;;;;;;27.70;22.77;;;11.40;1.00;;;;;;4961949;28;20548;-63
2022/03/17 06:04:04;;;;;;;28.83;23.23;;;11.40;1.00;;;;;;4975663;28;20221;-63
2022/03/17 06:06:34;;;;;;;27.70;22.93;;;11.30;1.00;;;;;;4994937;28;20512;-63
2022/03/17 06:09:01;;;;;;;29.40;23.13;;;11.30;1.00;;;;;;4982269;28;20225;-63
2022/03/17 06:11:30;;;;;;;28.43;23.17;;;11.30;65.80;;;;;;4983462;28;20240;-63
2022/03/17 06:13:59;;;;;;;29.57;24.87;;;11.40;99.90;;;;;;4997138;28;20198;-63
2022/03/17 06:16:28;;;;;;;33.13;23.63;;;11.30;99.90;;;;;;4984167;28;20275;-63
2022/03/17 06:18:55;;;;;;;32.13;24.70;;;11.30;99.90;;;;;;4989926;28;20581;-63
2022/03/17 06:21:24;;;;;;;30.57;25.13;;;11.10;1.00;;;;;;4984316;28;20207;-63
2022/03/17 06:23:54;;;;;;;31.53;26.87;;;11.10;1.00;;;;;;4990507;28;20229;-63
2022/03/17 06:26:25;;;;;;;33.33;28.67;;;11.10;1.00;;;;;;4991912;28;20263;-63
2022/03/17 06:28:52;;;;;;;36.17;28.57;;;11.00;1.00;;;;;;5001712;28;20268;-63
2022/03/17 06:31:19;;;;;;;37.20;30.73;;;10.90;1.00;;;;;;4972622;28;20565;-63
2022/03/17 06:33:46;;;;;;;35.83;28.70;;;10.90;53.50;;;;;;4989622;28;20292;-63
2022/03/17 06:36:13;;;;;;;44.40;34.57;;;10.80;99.90;;;;;;5000465;28;20202;-63
2022/03/17 06:38:40;;;;;;;45.50;34.70;;;10.80;99.90;;;;;;4989320;28;20296;-63
2022/03/17 06:41:07;;;;;;;44.63;35.43;;;10.70;1.00;;;;;;5000913;28;20206;-63
2022/03/17 06:43:36;;;;;;;59.57;45.33;;;10.70;1.00;;;;;;4985033;28;20214;-63
2022/03/17 06:46:03;;;;;;;44.90;34.37;;;10.70;1.00;;;;;;5000067;28;20356;-63
2022/03/17 06:48:30;;;;;;;46.53;36.20;;;10.70;1.00;;;;;;4999683;28;20605;-63
2022/03/17 06:50:57;;;;;;;41.10;33.63;;;10.70;1.00;;;;;;4997638;28;20202;-63
2022/03/17 06:53:24;;;;;;;38.73;31.97;;;10.60;1.00;;;;;;4984709;28;20205;-63
2022/03/17 06:55:53;;;;;;;37.07;31.03;;;10.60;1.00;;;;;;4990086;28;20201;-63
2022/03/17 06:58:20;;;;;;;41.10;33.07;;;10.60;1.00;;;;;;4990981;28;20264;-63
2022/03/17 07:00:47;;;;;;;40.07;33.43;;;10.50;97.10;;;;;;4984149;28;20837;-63
2022/03/17 07:03:14;;;;;;;43.20;34.07;;;10.50;32.50;;;;;;4997493;28;21721;-63
2022/03/17 07:05:42;;;;;;;45.77;35.93;;;10.50;99.90;;;;;;4982768;28;20224;-63
2022/03/17 07:08:09;;;;;;;43.03;36.03;;;10.50;99.90;;;;;;4997865;28;20233;-63
2022/03/17 07:10:36;;;;;;;41.53;34.97;;;10.40;1.00;;;;;;4999597;28;20620;-63
2022/03/17 07:13:03;;;;;;;48.40;38.60;;;10.40;1.00;;;;;;4972243;28;20206;-63
2022/03/17 07:15:29;;;;;;;46.20;36.27;;;10.30;99.90;;;;;;4984485;28;20709;-63
2022/03/17 07:17:56;;;;;;;50.13;36.57;;;10.30;99.90;;;;;;4982730;28;20239;-63
2022/03/17 07:20:26;;;;;;;49.77;37.70;;;10.30;99.90;;;;;;4997156;28;20205;-64
2022/03/17 07:22:56;;;;;;;47.07;37.90;;;10.20;1.00;;;;;;4996338;28;20252;-63
2022/03/17 07:25:24;;;;;;;50.10;38.73;;;10.20;91.20;;;;;;4983178;28;20198;-63
2022/03/17 07:27:51;;;;;;;48.57;37.60;;;10.10;99.90;;;;;;4997520;28;20635;-63
2022/03/17 07:30:20;;;;;;;52.23;40.07;;;10.10;1.00;;;;;;4999054;28;20727;-63
2022/03/17 07:32:52;;;;;;;50.57;39.53;;;10.10;24.10;;;;;;4981838;28;20664;-63
2022/03/17 07:35:19;;;;;;;54.00;41.23;;;10.10;99.90;;;;;;4989715;28;20210;-63
2022/03/17 07:37:46;;;;;;;55.13;40.27;;;10.10;99.90;;;;;;4998024;28;20276;-63
2022/03/17 07:40:13;;;;;;;54.60;40.60;;;10.10;1.00;;;;;;4972849;28;20268;-62
2022/03/17 07:42:40;;;;;;;56.57;40.70;;;10.10;1.00;;;;;;4989870;28;20261;-62
2022/03/17 07:45:14;;;;;;;58.37;40.80;;;10.10;1.00;;;;;;4984578;28;20210;-62
2022/03/17 07:47:59;;;;;;;44.33;33.10;;;10.10;99.90;;;;;;4981892;28;20204;-63
2022/03/17 07:50:31;;;;;;;36.33;27.10;;;10.00;99.90;;;;;;4988782;28;20217;-63
2022/03/17 07:52:59;;;;;;;27.73;20.33;;;10.00;1.00;;;;;;4982546;28;20262;-63
2022/03/17 07:55:27;;;;;;;25.03;17.60;;;10.00;1.00;;;;;;4989204;28;20244;-63
2022/03/17 07:57:56;;;;;;;23.47;16.97;;;9.90;95.90;;;;;;4996480;28;20206;-63
2022/03/17 08:00:23;;;;;;;24.90;17.47;;;9.90;99.90;;;;;;4982336;28;20226;-62
2022/03/17 08:02:50;;;;;;;21.40;15.47;;;9.90;1.00;;;;;;4983736;28;20202;-63
2022/03/17 08:05:19;;;;;;;18.30;13.70;;;9.80;1.00;;;;;;4981332;28;20280;-63
2022/03/17 08:07:46;;;;;;;16.77;13.37;;;9.70;1.00;;;;;;4985074;28;20565;-63
2022/03/17 08:10:15;;;;;;;16.87;13.37;;;9.70;1.00;;;;;;4988061;28;20193;-63
2022/03/17 08:12:46;;;;;;;15.60;13.33;;;9.60;30.70;;;;;;4988177;28;20532;-63
2022/03/17 08:15:14;;;;;;;19.20;14.40;;;9.60;99.90;;;;;;4981769;28;20615;-63
2022/03/17 08:17:41;;;;;;;20.23;14.10;;;9.60;1.00;;;;;;4982343;28;20661;-63
2022/03/17 08:20:11;;;;;;;18.30;13.40;;;9.70;1.00;;;;;;4980969;28;20206;-63
2022/03/17 08:22:39;;;;;;;18.20;13.13;;;9.70;99.90;;;;;;4997255;28;20248;-63
2022/03/17 08:25:06;;;;;;;17.23;11.93;;;9.70;99.90;;;;;;4971006;28;20702;-63
2022/03/17 08:27:36;;;;;;;18.30;13.80;;;9.60;99.90;;;;;;4988223;28;20204;-63
2022/03/17 08:30:05;;;;;;;22.37;14.60;;;9.70;99.90;;;;;;5000864;28;20225;-63
2022/03/17 08:32:31;;;;;;;18.37;14.13;;;9.70;99.90;;;;;;5001176;28;20261;-63
2022/03/17 08:35:01;;;;;;;19.17;13.30;;;9.80;99.90;;;;;;4985359;28;20581;-63
2022/03/17 08:37:30;;;;;;;16.97;13.17;;;9.70;1.00;;;;;;4996612;28;20296;-63
2022/03/17 08:39:57;;;;;;;17.03;13.07;;;9.70;1.00;;;;;;4996554;28;20229;-62
2022/03/17 08:42:26;;;;;;;20.60;13.03;;;9.70;1.00;;;;;;4981722;28;20341;-63
2022/03/17 08:44:53;;;;;;;20.10;13.30;;;9.70;99.90;;;;;;4982846;28;20291;-63
2022/03/17 08:50:11;;;;;;;15.40;12.13;;;9.60;99.90;;;;;;4987676;28;20228;-63
2022/03/17 08:52:38;;;;;;;18.60;14.07;;;9.70;99.90;;;;;;4978467;28;20190;-63
2022/03/17 08:55:05;;;;;;;20.30;15.90;;;9.70;99.90;;;;;;4981389;28;20206;-63
2022/03/17 08:57:34;;;;;;;21.00;17.87;;;9.80;99.90;;;;;;4979359;28;20227;-63
2022/03/17 09:00:06;;;;;;;15.10;10.37;;;9.80;99.90;;;;;;4996472;28;20288;-63
2022/03/17 09:02:38;;;;;;;20.67;11.77;;;9.80;99.90;;;;;;4981358;28;20189;-62
2022/03/17 09:05:08;;;;;;;10.90;9.20;;;9.80;99.90;;;;;;4982386;28;20218;-62
2022/03/17 09:07:34;;;;;;;14.30;10.40;;;9.70;99.90;;;;;;4995643;28;20202;-62
2022/03/17 09:10:02;;;;;;;15.23;10.73;;;9.70;9.60;;;;;;4981809;28;20198;-62
2022/03/17 09:12:29;;;;;;;16.37;10.63;;;9.60;96.80;;;;;;4997873;28;20193;-64
2022/03/17 09:14:56;;;;;;;12.47;9.67;;;9.60;99.90;;;;;;4982662;28;20236;-64
2022/03/17 09:17:23;;;;;;;15.27;10.03;;;9.60;37.10;;;;;;4971494;28;20466;-64
2022/03/17 09:19:50;;;;;;;13.40;8.67;;;9.60;1.00;;;;;;4996358;28;20208;-63
2022/03/17 09:22:17;;;;;;;12.67;8.90;;;9.50;1.00;;;;;;4977168;28;20224;-63
2022/03/17 09:24:48;;;;;;;11.43;7.50;;;9.50;1.00;;;;;;4985287;28;20221;-63
2022/03/17 09:27:16;;;;;;;12.23;7.70;;;9.50;1.00;;;;;;4971258;28;20227;-63
2022/03/17 09:29:43;;;;;;;16.97;8.00;;;9.50;1.00;;;;;;4983166;28;20688;-63
2022/03/17 09:32:15;;;;;;;13.50;8.07;;;9.60;1.00;;;;;;4997690;28;20194;-63
2022/03/17 09:34:42;;;;;;;11.60;6.70;;;9.70;1.00;;;;;;4979903;28;20285;-63
2022/03/17 09:37:11;;;;;;;13.30;5.70;;;9.70;1.00;;;;;;4986452;28;20572;-63
2022/03/17 09:39:46;;;;;;;9.47;5.77;;;9.70;1.00;;;;;;4979655;28;20194;-65
2022/03/17 09:42:16;;;;;;;10.23;5.43;;;9.70;1.00;;;;;;4995431;28;20752;-63
2022/03/17 09:44:47;;;;;;;11.73;5.53;;;9.90;1.00;;;;;;4979205;28;20296;-63
2022/03/17 09:47:19;;;;;;;10.57;5.77;;;10.00;99.90;;;;;;4982864;28;20201;-64
2022/03/17 09:49:48;;;;;;;11.87;6.27;;;9.90;99.90;;;;;;4985642;28;20312;-63
2022/03/17 09:52:17;;;;;;;12.60;5.47;;;10.00;99.90;;;;;;4995691;28;20240;-63
2022/03/17 09:54:45;;;;;;;9.33;5.77;;;9.90;99.90;;;;;;4979259;28;20212;-63
2022/03/17 09:57:16;;;;;;;9.83;6.03;;;9.90;99.90;;;;;;4981394;28;20194;-64
2022/03/17 09:59:45;;;;;;;9.70;5.70;;;9.90;99.90;;;;;;4969334;28;20780;-64
2022/03/17 10:02:17;;;;;;;10.27;5.50;;;10.00;99.90;;;;;;4979674;28;20213;-64
2022/03/17 10:04:46;;;;;;;10.53;5.60;;;9.90;99.90;;;;;;4981575;28;21114;-64
2022/03/17 10:07:20;;;;;;;9.80;4.97;;;9.90;99.90;;;;;;4980016;28;20273;-64
2022/03/17 10:09:50;;;;;;;11.47;5.20;;;10.00;99.90;;;;;;4978664;28;20753;-63
2022/03/17 10:12:20;;;;;;;9.30;5.10;;;10.00;99.90;;;;;;4994976;28;20221;-63
2022/03/17 10:14:53;;;;;;;10.37;4.70;;;10.00;99.90;;;;;;4970373;28;20201;-63
2022/03/17 10:17:33;;;;;;;11.67;5.20;;;9.80;99.90;;;;;;4985921;28;20194;-63
2022/03/17 10:20:22;;;;;;;11.87;5.40;;;9.80;84.60;;;;;;4997295;28;20229;-63
2022/03/17 10:22:52;;;;;;;9.77;5.70;;;9.80;99.90;;;;;;4996893;28;20223;-64
2022/03/17 10:25:26;;;;;;;11.77;5.30;;;10.00;99.90;;;;;;4986179;28;20310;-64
2022/03/17 10:27:54;;;;;;;8.87;4.77;;;10.00;99.90;;;;;;4986395;28;20293;-64
2022/03/17 10:30:35;;;;;;;10.73;5.03;;;10.00;1.00;;;;;;4985379;28;20209;-63
2022/03/17 10:33:11;;;;;;;9.30;4.77;;;10.00;8.10;;;;;;4976567;28;20225;-64
2022/03/17 10:35:49;;;;;;;9.10;4.43;;;10.00;1.00;;;;;;4980802;28;20206;-64
2022/03/17 10:38:22;;;;;;;11.50;4.30;;;10.20;1.00;;;;;;4979544;28;20207;-63
2022/03/17 10:41:03;;;;;;;7.97;4.47;;;10.20;1.00;;;;;;4982612;28;20565;-63
2022/03/17 10:43:33;;;;;;;8.47;4.63;;;10.20;1.00;;;;;;4979312;28;20233;-63
2022/03/17 10:46:20;;;;;;;10.33;3.97;;;10.20;1.00;;;;;;4989394;28;20249;-63
2022/03/17 10:48:56;;;;;;;8.40;4.10;;;10.10;1.00;;;;;;4969991;28;20204;-63
2022/03/17 10:51:54;;;;;;;9.07;3.80;;;10.10;1.00;;;;;;4996216;28;20519;-64
2022/03/17 10:54:22;;;;;;;6.93;3.40;;;10.20;1.00;;;;;;4996782;28;20210;-63
2022/03/17 10:57:03;;;;;;;8.23;3.60;;;10.20;1.00;;;;;;5001817;28;20241;-64
2022/03/17 10:59:42;;;;;;;7.20;3.67;;;10.20;1.00;;;;;;4986808;28;20558;-63
2022/03/17 11:02:12;;;;;;;8.23;3.23;;;10.10;1.00;;;;;;4999631;28;20213;-64
2022/03/17 11:04:43;;;;;;;10.03;4.40;;;10.00;1.00;;;;;;4983697;28;20249;-63
2022/03/17 11:07:16;;;;;;;8.53;3.60;;;9.90;1.00;;;;;;4984300;28;20193;-64
2022/03/17 11:09:46;;;;;;;7.37;3.40;;;9.90;1.00;;;;;;4982676;28;20182;-64
2022/03/17 11:12:20;;;;;;;9.33;4.10;;;9.90;1.00;;;;;;4973478;28;20661;-64
2022/03/17 11:14:51;;;;;;;7.47;3.73;;;9.80;1.00;;;;;;4985910;28;20215;-64
2022/03/17 11:17:28;;;;;;;10.83;3.77;;;9.80;1.00;;;;;;4998852;28;20592;-62
2022/03/17 11:20:03;;;;;;;7.80;3.07;;;9.80;1.00;;;;;;4988804;28;20927;-64
2022/03/17 11:22:33;;;;;;;7.27;2.80;;;10.00;1.00;;;;;;4985433;28;20284;-63
2022/03/17 11:25:15;;;;;;;10.80;3.90;;;10.20;1.00;;;;;;5000409;28;20631;-65
2022/03/17 11:27:46;;;;;;;7.37;2.77;;;10.40;1.00;;;;;;4983449;28;20225;-63
2022/03/17 11:30:15;;;;;;;5.73;2.07;;;10.40;1.00;;;;;;4982308;28;20244;-64
2022/03/17 11:32:55;;;;;;;7.13;2.10;;;10.50;1.00;;;;;;4982476;28;20812;-63
2022/03/17 11:35:32;;;;;;;9.30;2.50;;;10.60;99.90;;;;;;4982891;28;20196;-63
2022/03/17 11:38:17;;;;;;;5.77;1.90;;;10.70;99.90;;;;;;4998954;28;20497;-63
2022/03/17 11:41:20;;;;;;;5.80;2.37;;;10.70;99.90;;;;;;4983525;28;20225;-65
2022/03/17 11:43:47;;;;;;;8.77;1.63;;;10.60;99.90;;;;;;4994399;28;20198;-63
2022/03/17 11:46:34;;;;;;;11.97;2.20;;;10.60;99.90;;;;;;4983094;28;20328;-63
2022/03/17 11:49:23;;;;;;;10.03;1.90;;;10.50;99.90;;;;;;4994372;28;20662;-63
2022/03/17 11:52:05;;;;;;;11.03;2.17;;;10.40;99.90;;;;;;4986994;28;20289;-63
2022/03/17 11:54:32;;;;;;;5.33;1.53;;;10.40;99.90;;;;;;4988002;28;20244;-63
2022/03/17 11:57:06;;;;;;;11.13;2.20;;;10.30;99.90;;;;;;4980699;28;20187;-63
2022/03/17 11:59:58;;;;;;;9.27;3.10;;;10.30;99.90;;;;;;4997681;28;20549;-63
2022/03/17 12:02:30;;;;;;;5.97;2.00;;;10.40;99.90;;;;;;4980489;28;20189;-63
2022/03/17 12:05:11;;;;;;;8.23;3.00;;;10.80;99.90;;;;;;4996545;28;20284;-63
2022/03/17 12:07:46;;;;;;;6.30;2.30;;;11.20;99.90;;;;;;4983296;28;20459;-63
2022/03/17 12:10:52;;;;;;;6.23;2.43;;;11.60;1.00;;;;;;4981522;28;20201;-63
2022/03/17 12:13:22;;;;;;;10.87;1.97;;;11.80;1.00;;;;;;4982889;28;20661;-63
2022/03/17 12:15:55;;;;;;;8.10;2.17;;;11.80;1.00;;;;;;4998827;28;20478;-63
2022/03/17 12:18:26;;;;;;;8.17;2.20;;;11.80;1.00;;;;;;4988529;28;20236;-63
2022/03/17 12:20:53;;;;;;;6.60;1.70;;;11.90;1.00;;;;;;4999165;28;21142;-63
2022/03/17 12:23:45;;;;;;;9.83;2.30;;;12.00;99.90;;;;;;4984957;28;20277;-63
2022/03/17 12:26:12;;;;;;;8.40;2.23;;;11.90;99.90;;;;;;4997966;28;20258;-63
2022/03/17 12:28:44;;;;;;;5.70;1.80;;;11.70;1.00;;;;;;4983263;28;20234;-63
2022/03/17 12:31:14;;;;;;;10.10;2.30;;;11.60;1.00;;;;;;4997793;28;20220;-63
2022/03/17 12:33:45;;;;;;;4.23;2.07;;;11.40;1.00;;;;;;4999535;28;20302;-64
2022/03/17 12:36:14;;;;;;;9.07;2.93;;;11.50;1.00;;;;;;4982637;28;20209;-63
2022/03/17 12:38:41;;;;;;;9.97;2.53;;;11.60;1.00;;;;;;4979346;28;20621;-63
2022/03/17 12:41:13;;;;;;;6.43;2.20;;;11.70;1.00;;;;;;4980733;28;20198;-62
2022/03/17 12:43:43;;;;;;;5.87;2.30;;;11.80;99.90;;;;;;4997270;28;20304;-63
2022/03/17 12:46:10;;;;;;;8.63;1.80;;;12.10;99.90;;;;;;4987921;28;20217;-63
2022/03/17 12:48:40;;;;;;;9.77;2.67;;;12.20;99.90;;;;;;4983183;28;20704;-63
2022/03/17 12:51:09;;;;;;;14.50;9.40;;;12.50;99.90;;;;;;4989197;28;20202;-63
2022/03/17 12:53:36;;;;;;;14.10;4.90;;;12.60;99.90;;;;;;4999620;28;20189;-64
2022/03/17 12:56:05;;;;;;;9.10;2.10;;;12.90;99.90;;;;;;4986421;28;20576;-62
2022/03/17 12:58:41;;;;;;;9.80;2.40;;;13.00;99.90;;;;;;4998297;28;20202;-62
2022/03/17 13:01:13;;;;;;;6.57;4.07;;;13.00;99.90;;;;;;4982702;28;20206;-62
2022/03/17 13:03:40;;;;;;;11.90;3.60;;;13.00;90.10;;;;;;4956424;28;20572;-63
2022/03/17 13:08:54;;;;;;;12.00;2.57;;;13.20;1.00;;;;;;4975623;28;20193;-62
2022/03/17 13:14:21;;;;;;;10.40;2.30;;;13.00;1.00;;;;;;4978897;28;20189;-65
2022/03/17 13:17:02;;;;;;;11.10;2.83;;;13.20;1.00;;;;;;4979193;28;20272;-62